Air Navigation Services of Czech Republic
Airport: LKKB Updated:  19.01.2018 14:51:05  UTC
 METAR LKKB 19.01. 14:00 ...
METAR LKKB 191400Z 23008KT 170V250 9999 SCT015 OVC050 03/00 Q1007 NOSIG =
 TAF LKKB 19.01. 11:00 ...
TAF LKKB 191100Z 1912/2012 25010KT 9999 SCT040      TEMPO 1912/1922 26015G25KT 3500 SHSNRA BKN010 OVC018      BECMG 1921/1923 CAVOK      BECMG 2003/2005 BKN028      TEMPO 2004/2008 26015G25KT 2000 SN SCT005 OVC012      BECMG 2007/2009 CAVOK=